AirNav   Air Wisconsin Up To $57,000 Bonus
 
 1324 users online  

3PA0 Horst Airport
Lebanon, Pennsylvania, USA

GOING TO LEBANON?


FAA INFORMATION EFFECTIVE 22 APRIL 2021

Location

FAA Identifier: 3PA0
Lat/Long: 40-23-00.3270N 076-27-58.8670W
40-23.005450N 076-27.981117W
40.3834242,-76.4663519
(estimated)
Elevation: 450 ft. / 137 m (estimated)
Variation: 11W (1985)
From city: 4 miles NW of LEBANON, PA
Time zone: UTC -4 (UTC -5 during Standard Time)
Zip code: 17046

Airport Operations

Airport use: Private use. Permission required prior to landing
Activation date: 04/1973
Control tower: no
ARTCC: NEW YORK CENTER
FSS: WILLIAMSPORT FLIGHT SERVICE STATION
Attendance: UNATNDD
Wind indicator: yes
Segmented circle: no

Airport Communications

WX ASOS at MUI (6 nm NW): 124.175 (717-861-2536)
WX AWOS-2 at 9D4 (7 nm E): 118.45 (717-866-2906)
WX ASOS at LNS (18 nm SE): 125.675 (717-569-8860)
WX ASOS at MDT (18 nm SW): 118.8 (717-944-1372)
WX AWOS-3 at ZER (20 nm N): 127.575 (570-544-2778)

Nearby radio navigation aids

VOR radial/distance  VOR name  Freq  Var
RAVr160/11.9RAVINE VORTAC114.6011W
LRPr342/17.7LANCASTER VOR/DME117.3009W
HARr090/28.0HARRISBURG VORTAC112.5010W
SEGr150/31.0SELINSGROVE VOR/DME110.4008W
ETXr261/37.6EAST TEXAS VOR/DME110.2009W
MIPr176/39.4MILTON VORTAC109.2009W

 
NDB name  Hdg/Dist  Freq  Var  ID
BELLGROVE138/5.032810WBZJ -... --.. .---

Airport Services

Airframe service: NONE
Powerplant service: NONE

Runway Information

Runway E/W

Dimensions: 2000 x 100 ft. / 610 x 30 m
Surface: turf
RUNWAY E  RUNWAY W
Traffic pattern: leftleft
Obstructions: plinenone

Airport Ownership and Management from official FAA records

Ownership: Privately-owned
Owner: PAUL N. HORST
105 HORST DRIVE
LEBANON, PA 17046
Phone 717-269-2697

Airport Operational Statistics

Aircraft based on the field: 1
Single engine airplanes: 1
    

Additional Remarks

FOR CD CTC HARRISBURG APCH AT 800-932-0712.

Instrument Procedures

There are no published instrument procedures at 3PA0.

Some nearby airports with instrument procedures:

KMUI - Muir Army Airfield (Fort Indiantown Gap) (6 nm NW)
9D4 - Deck Airport (7 nm E)
58N - Reigle Field Airport (8 nm SW)
08N - Keller Brothers Airport (8 nm SE)
74N - Bendigo Airport (11 nm N)
KLNS - Lancaster Airport (18 nm SE)
KMDT - Harrisburg International Airport (18 nm SW)
N71 - Donegal Springs Airpark (18 nm S)
KZER - Schuylkill County/Joe Zerbey Airport (20 nm N)
 
Loc | Ops | Rwys | IFR | FBO | Links
Com | Nav | Svcs | Stats | Notes
Area around 3PA0 (Horst Airport)
 
Road maps at: MapQuest Bing Google
 
Aerial photo
No photo
 
Sectional chart

 
Airport distance calculator
Flying to Horst Airport? Find the distance to fly.

From to 3PA0

Sunrise and sunset
Times for 05-May-2021
 Local
(UTC-4)
 Zulu
(UTC)
Morning civil twilight05:3109:31
Sunrise06:0110:01
Sunset20:0400:04
Evening civil twilight20:3400:34

Current date and time
Zulu (UTC)  05-May-2021 21:28:21
Local (UTC-4)  05-May-2021 17:28:21
 
METAR
KMUI 
5nm NW 
052056Z 31010KT 10SM BKN026 OVC034 17/11 A2976 RMK AO2A SLP079 60000 T01730113 52027
KMDT 
18nm SW 
052056Z 31015G27KT 10SM BKN042 BKN049 BKN110 20/10 A2976 RMK AO2 PK WND 32028/2036 SLP077 6//// T02000100 53022 PNO $
KLNS 
18nm SE 
052114Z 32017G22KT 10SM SCT029 BKN036 OVC047 19/12 A2975 RMK AO2 T01890122
TAF
KMUI 
5nm NW 
051900Z 0519/0701 30015G20KT 9999 BKN020 OVC040 510152 QNH2970INS BECMG 0523/0524 31009KT 9999 BKN035 OVC050 510152 QNH2982INS BECMG 0611/0612 34015G20KT 9999 BKN035 QNH3002INS BECMG 0615/0616 32012G18KT 9999 SCT035 SCT090 QNH2997INS BECMG 0621/0622 33006KT 9999 FEW040 SCT080 QNH2997INS TX20/0520Z TN09/0610Z LAST NO AMDS AFT 0605 NEXT 0611
KMDT 
18nm SW 
051740Z 0518/0618 30012G20KT P6SM -SHRA SCT025 OVC060 FM052100 32017G24KT P6SM SCT035 FM060800 31012KT P6SM SCT030
KLNS 
18nm SE 
051740Z 0518/0618 30017G24KT P6SM -SHRA BKN015 OVC080 FM052100 30015G23KT P6SM OVC050 FM060800 31012KT P6SM SCT030
NOTAMs
Click for the latest NOTAMs
NOTAMs are issued by the DoD/FAA and will open in a separate window not controlled by AirNav.

 

 
 

Would you like to see your business listed on this page?

 If your business provides an interesting product or service to pilots, flight crews, aircraft, or users of the Horst Airport, you should consider listing it here.  To start the listing process, click on the button below
 
Add a business
 

Other Pages about Horst Airport

Update a link
 
Copyright © AirNav, LLC. All rights reserved. Privacy Policy  Contact